sensor_id;sensor_type;location;lat;lon;timestamp;pressure;altitude;pressure_sealevel;temperature;humidity
44872;BME280;30602;51.060;17.226;2024-02-26T00:03:15;100480.63;;;1.16;100.00
44872;BME280;30602;51.060;17.226;2024-02-26T00:06:50;100471.07;;;1.10;100.00
44872;BME280;30602;51.060;17.226;2024-02-26T00:10:24;100482.55;;;1.10;100.00
44872;BME280;30602;51.060;17.226;2024-02-26T00:13:50;100486.05;;;1.03;100.00
44872;BME280;30602;51.060;17.226;2024-02-26T00:17:24;100489.97;;;0.98;100.00
44872;BME280;30602;51.060;17.226;2024-02-26T00:20:57;100488.40;;;0.95;100.00
44872;BME280;30602;51.060;17.226;2024-02-26T00:24:23;100487.62;;;0.84;100.00
44872;BME280;30602;51.060;17.226;2024-02-26T00:27:52;100493.80;;;0.77;100.00
44872;BME280;30602;51.060;17.226;2024-02-26T00:31:16;100489.66;;;0.77;100.00
44872;BME280;30602;51.060;17.226;2024-02-26T00:35:21;100489.34;;;0.81;100.00
44872;BME280;30602;51.060;17.226;2024-02-26T00:38:49;100482.41;;;0.91;100.00
44872;BME280;30602;51.060;17.226;2024-02-26T00:42:25;100482.97;;;0.86;100.00
44872;BME280;30602;51.060;17.226;2024-02-26T00:49:58;100478.64;;;0.88;100.00
44872;BME280;30602;51.060;17.226;2024-02-26T00:53:24;100480.13;;;0.69;100.00
44872;BME280;30602;51.060;17.226;2024-02-26T00:57:26;100476.44;;;0.76;100.00
44872;BME280;30602;51.060;17.226;2024-02-26T01:00:51;100451.61;;;0.70;100.00
44872;BME280;30602;51.060;17.226;2024-02-26T01:05:08;100466.81;;;0.90;100.00
44872;BME280;30602;51.060;17.226;2024-02-26T01:08:40;100459.87;;;1.02;100.00
44872;BME280;30602;51.060;17.226;2024-02-26T01:12:07;100457.20;;;1.03;100.00
44872;BME280;30602;51.060;17.226;2024-02-26T01:15:36;100460.33;;;1.00;100.00
44872;BME280;30602;51.060;17.226;2024-02-26T01:19:05;100449.69;;;0.89;100.00
44872;BME280;30602;51.060;17.226;2024-02-26T01:22:32;100458.16;;;0.99;100.00
44872;BME280;30602;51.060;17.226;2024-02-26T01:25:56;100450.98;;;1.00;100.00
44872;BME280;30602;51.060;17.226;2024-02-26T01:29:21;100448.28;;;0.97;100.00
44872;BME280;30602;51.060;17.226;2024-02-26T01:32:46;100446.05;;;1.00;100.00
44872;BME280;30602;51.060;17.226;2024-02-26T01:36:12;100444.67;;;1.06;100.00
44872;BME280;30602;51.060;17.226;2024-02-26T01:39:42;100445.43;;;1.01;100.00
44872;BME280;30602;51.060;17.226;2024-02-26T01:43:07;100441.54;;;0.93;100.00
44872;BME280;30602;51.060;17.226;2024-02-26T01:46:37;100448.69;;;0.89;100.00
44872;BME280;30602;51.060;17.226;2024-02-26T01:50:04;100445.07;;;0.84;100.00
44872;BME280;30602;51.060;17.226;2024-02-26T01:53:28;100443.80;;;0.73;100.00
44872;BME280;30602;51.060;17.226;2024-02-26T01:56:55;100443.12;;;0.69;100.00
44872;BME280;30602;51.060;17.226;2024-02-26T02:00:26;100442.63;;;0.71;100.00
44872;BME280;30602;51.060;17.226;2024-02-26T02:03:57;100446.84;;;0.74;100.00
44872;BME280;30602;51.060;17.226;2024-02-26T02:07:32;100445.77;;;0.74;100.00
44872;BME280;30602;51.060;17.226;2024-02-26T02:11:35;100442.26;;;0.65;100.00
44872;BME280;30602;51.060;17.226;2024-02-26T02:15:04;100437.13;;;0.68;100.00
44872;BME280;30602;51.060;17.226;2024-02-26T02:18:34;100428.38;;;0.69;100.00
44872;BME280;30602;51.060;17.226;2024-02-26T02:22:02;100428.22;;;0.69;100.00
44872;BME280;30602;51.060;17.226;2024-02-26T02:25:28;100425.44;;;0.68;100.00
44872;BME280;30602;51.060;17.226;2024-02-26T02:28:59;100427.69;;;0.68;100.00
44872;BME280;30602;51.060;17.226;2024-02-26T02:32:27;100436.56;;;0.64;100.00
44872;BME280;30602;51.060;17.226;2024-02-26T02:36:06;100434.05;;;0.68;100.00
44872;BME280;30602;51.060;17.226;2024-02-26T02:39:35;100436.52;;;0.70;100.00
44872;BME280;30602;51.060;17.226;2024-02-26T02:42:56;100429.15;;;0.70;100.00
44872;BME280;30602;51.060;17.226;2024-02-26T02:46:37;100415.12;;;0.68;100.00
44872;BME280;30602;51.060;17.226;2024-02-26T02:50:06;100429.59;;;0.69;100.00
44872;BME280;30602;51.060;17.226;2024-02-26T02:53:31;100425.64;;;0.71;100.00
44872;BME280;30602;51.060;17.226;2024-02-26T02:57:39;100430.56;;;0.74;100.00
44872;BME280;30602;51.060;17.226;2024-02-26T03:01:00;100427.64;;;0.76;100.00
44872;BME280;30602;51.060;17.226;2024-02-26T03:04:26;100423.79;;;0.70;100.00
44872;BME280;30602;51.060;17.226;2024-02-26T03:07:55;100420.95;;;0.69;100.00
44872;BME280;30602;51.060;17.226;2024-02-26T03:11:58;100406.76;;;0.58;100.00
44872;BME280;30602;51.060;17.226;2024-02-26T03:15:22;100412.88;;;0.59;100.00
44872;BME280;30602;51.060;17.226;2024-02-26T03:18:54;100434.94;;;0.59;100.00
44872;BME280;30602;51.060;17.226;2024-02-26T03:22:21;100433.20;;;0.52;100.00
44872;BME280;30602;51.060;17.226;2024-02-26T03:26:13;100431.62;;;0.36;100.00
44872;BME280;30602;51.060;17.226;2024-02-26T03:29:41;100432.03;;;0.29;100.00
44872;BME280;30602;51.060;17.226;2024-02-26T03:33:04;100432.90;;;0.25;100.00
44872;BME280;30602;51.060;17.226;2024-02-26T03:36:36;100431.06;;;0.08;100.00
44872;BME280;30602;51.060;17.226;2024-02-26T03:40:02;100427.73;;;0.06;100.00
44872;BME280;30602;51.060;17.226;2024-02-26T03:44:02;100419.60;;;0.10;100.00
44872;BME280;30602;51.060;17.226;2024-02-26T03:47:23;100426.29;;;0.22;100.00
44872;BME280;30602;51.060;17.226;2024-02-26T03:50:47;100425.30;;;0.24;100.00
44872;BME280;30602;51.060;17.226;2024-02-26T03:54:11;100422.42;;;0.30;100.00
44872;BME280;30602;51.060;17.226;2024-02-26T03:57:41;100421.73;;;0.29;100.00
44872;BME280;30602;51.060;17.226;2024-02-26T04:01:10;100421.83;;;0.36;100.00
44872;BME280;30602;51.060;17.226;2024-02-26T04:04:35;100422.95;;;0.37;100.00
44872;BME280;30602;51.060;17.226;2024-02-26T04:08:01;100422.12;;;0.33;100.00
44872;BME280;30602;51.060;17.226;2024-02-26T04:11:34;100427.23;;;0.36;100.00
44872;BME280;30602;51.060;17.226;2024-02-26T04:15:34;100423.20;;;0.25;100.00
44872;BME280;30602;51.060;17.226;2024-02-26T04:18:56;100425.61;;;0.17;100.00
44872;BME280;30602;51.060;17.226;2024-02-26T04:22:24;100424.76;;;0.06;100.00
44872;BME280;30602;51.060;17.226;2024-02-26T04:25:49;100426.68;;;0.02;100.00
44872;BME280;30602;51.060;17.226;2024-02-26T04:29:13;100426.41;;;0.03;100.00
44872;BME280;30602;51.060;17.226;2024-02-26T04:32:39;100425.54;;;0.14;100.00
44872;BME280;30602;51.060;17.226;2024-02-26T04:36:04;100431.41;;;0.31;100.00
44872;BME280;30602;51.060;17.226;2024-02-26T04:39:33;100432.41;;;0.44;100.00
44872;BME280;30602;51.060;17.226;2024-02-26T04:43:03;100435.75;;;0.44;100.00
44872;BME280;30602;51.060;17.226;2024-02-26T04:46:28;100437.70;;;0.25;100.00
44872;BME280;30602;51.060;17.226;2024-02-26T04:49:57;100438.02;;;0.14;100.00
44872;BME280;30602;51.060;17.226;2024-02-26T04:53:26;100435.16;;;0.36;100.00
44872;BME280;30602;51.060;17.226;2024-02-26T04:56:57;100440.66;;;0.41;100.00
44872;BME280;30602;51.060;17.226;2024-02-26T05:00:29;100417.30;;;0.17;100.00
44872;BME280;30602;51.060;17.226;2024-02-26T05:03:53;100445.11;;;0.24;100.00
44872;BME280;30602;51.060;17.226;2024-02-26T05:07:18;100440.98;;;0.13;100.00
44872;BME280;30602;51.060;17.226;2024-02-26T05:10:46;100442.36;;;0.01;100.00
44872;BME280;30602;51.060;17.226;2024-02-26T05:14:12;100443.94;;;-0.01;100.00
44872;BME280;30602;51.060;17.226;2024-02-26T05:17:48;100444.08;;;-0.03;100.00
44872;BME280;30602;51.060;17.226;2024-02-26T05:21:13;100442.95;;;-0.07;100.00
44872;BME280;30602;51.060;17.226;2024-02-26T05:24:46;100443.33;;;-0.12;100.00
44872;BME280;30602;51.060;17.226;2024-02-26T05:28:09;100440.69;;;-0.12;100.00
44872;BME280;30602;51.060;17.226;2024-02-26T05:31:42;100439.95;;;0.08;100.00
44872;BME280;30602;51.060;17.226;2024-02-26T05:35:07;100439.30;;;0.18;100.00
44872;BME280;30602;51.060;17.226;2024-02-26T05:38:35;100442.27;;;0.19;100.00
44872;BME280;30602;51.060;17.226;2024-02-26T05:42:06;100444.91;;;0.25;100.00
44872;BME280;30602;51.060;17.226;2024-02-26T05:45:38;100443.56;;;0.30;100.00
44872;BME280;30602;51.060;17.226;2024-02-26T05:49:05;100446.51;;;0.31;100.00
44872;BME280;30602;51.060;17.226;2024-02-26T05:52:34;100453.51;;;0.30;100.00
44872;BME280;30602;51.060;17.226;2024-02-26T05:56:09;100455.55;;;0.35;100.00
44872;BME280;30602;51.060;17.226;2024-02-26T05:59:41;100457.70;;;0.45;100.00
44872;BME280;30602;51.060;17.226;2024-02-26T06:03:09;100454.01;;;0.53;100.00
44872;BME280;30602;51.060;17.226;2024-02-26T06:06:37;100461.42;;;0.65;100.00
44872;BME280;30602;51.060;17.226;2024-02-26T06:10:05;100464.59;;;0.70;100.00
44872;BME280;30602;51.060;17.226;2024-02-26T06:13:31;100465.74;;;0.59;100.00
44872;BME280;30602;51.060;17.226;2024-02-26T06:16:54;100464.27;;;0.40;100.00
44872;BME280;30602;51.060;17.226;2024-02-26T06:20:26;100468.74;;;0.36;100.00
44872;BME280;30602;51.060;17.226;2024-02-26T06:23:52;100467.13;;;0.39;100.00
44872;BME280;30602;51.060;17.226;2024-02-26T06:27:25;100470.73;;;0.56;100.00
44872;BME280;30602;51.060;17.226;2024-02-26T06:30:52;100476.11;;;0.70;100.00
44872;BME280;30602;51.060;17.226;2024-02-26T06:34:16;100472.71;;;0.85;100.00
44872;BME280;30602;51.060;17.226;2024-02-26T06:37:47;100464.98;;;1.02;100.00
44872;BME280;30602;51.060;17.226;2024-02-26T06:41:22;100467.48;;;1.25;100.00
44872;BME280;30602;51.060;17.226;2024-02-26T06:44:52;100464.37;;;1.55;100.00
44872;BME280;30602;51.060;17.226;2024-02-26T06:48:16;100460.03;;;1.76;100.00
44872;BME280;30602;51.060;17.226;2024-02-26T06:51:42;100466.10;;;1.96;100.00
44872;BME280;30602;51.060;17.226;2024-02-26T06:55:08;100463.30;;;2.10;100.00
44872;BME280;30602;51.060;17.226;2024-02-26T06:58:38;100467.48;;;2.18;100.00
44872;BME280;30602;51.060;17.226;2024-02-26T07:02:06;100459.62;;;2.22;100.00
44872;BME280;30602;51.060;17.226;2024-02-26T07:05:36;100466.88;;;2.43;100.00
44872;BME280;30602;51.060;17.226;2024-02-26T07:09:05;100470.92;;;2.69;100.00
44872;BME280;30602;51.060;17.226;2024-02-26T07:13:19;100470.05;;;3.00;100.00
44872;BME280;30602;51.060;17.226;2024-02-26T07:16:48;100466.12;;;3.35;100.00
44872;BME280;30602;51.060;17.226;2024-02-26T07:20:19;100468.35;;;3.54;100.00
44872;BME280;30602;51.060;17.226;2024-02-26T07:23:46;100466.80;;;3.79;100.00
44872;BME280;30602;51.060;17.226;2024-02-26T07:27:20;100466.20;;;4.00;100.00
44872;BME280;30602;51.060;17.226;2024-02-26T07:30:47;100463.61;;;4.19;100.00
44872;BME280;30602;51.060;17.226;2024-02-26T07:34:17;100464.87;;;4.40;100.00
44872;BME280;30602;51.060;17.226;2024-02-26T07:37:48;100468.50;;;4.57;100.00
44872;BME280;30602;51.060;17.226;2024-02-26T07:41:21;100471.02;;;4.72;100.00
44872;BME280;30602;51.060;17.226;2024-02-26T07:44:47;100472.59;;;4.91;100.00
44872;BME280;30602;51.060;17.226;2024-02-26T07:48:14;100469.47;;;5.09;100.00
44872;BME280;30602;51.060;17.226;2024-02-26T07:51:40;100472.05;;;5.27;100.00
44872;BME280;30602;51.060;17.226;2024-02-26T07:55:09;100470.30;;;5.43;100.00
44872;BME280;30602;51.060;17.226;2024-02-26T07:58:51;100463.09;;;5.57;100.00
44872;BME280;30602;51.060;17.226;2024-02-26T08:02:09;100464.85;;;5.76;100.00
44872;BME280;30602;51.060;17.226;2024-02-26T08:05:38;100465.28;;;5.95;100.00
44872;BME280;30602;51.060;17.226;2024-02-26T08:09:10;100463.13;;;6.17;100.00
44872;BME280;30602;51.060;17.226;2024-02-26T08:12:41;100463.87;;;6.31;100.00
44872;BME280;30602;51.060;17.226;2024-02-26T08:16:10;100460.96;;;6.47;100.00
44872;BME280;30602;51.060;17.226;2024-02-26T08:19:37;100468.08;;;6.61;100.00
44872;BME280;30602;51.060;17.226;2024-02-26T08:23:06;100470.80;;;6.72;100.00
44872;BME280;30602;51.060;17.226;2024-02-26T08:27:05;100464.64;;;6.91;100.00
44872;BME280;30602;51.060;17.226;2024-02-26T08:30:33;100465.84;;;7.09;100.00
44872;BME280;30602;51.060;17.226;2024-02-26T08:34:01;100460.30;;;7.25;100.00
44872;BME280;30602;51.060;17.226;2024-02-26T08:38:02;100457.60;;;7.40;100.00
44872;BME280;30602;51.060;17.226;2024-02-26T08:41:28;100451.05;;;7.58;100.00
44872;BME280;30602;51.060;17.226;2024-02-26T08:44:53;100452.94;;;7.71;100.00
44872;BME280;30602;51.060;17.226;2024-02-26T08:48:34;100448.63;;;7.85;99.95
44872;BME280;30602;51.060;17.226;2024-02-26T08:52:02;100448.91;;;8.00;98.86
44872;BME280;30602;51.060;17.226;2024-02-26T08:56:35;100449.32;;;8.19;97.48
44872;BME280;30602;51.060;17.226;2024-02-26T09:00:01;100447.48;;;8.41;96.02
44872;BME280;30602;51.060;17.226;2024-02-26T09:03:32;100449.64;;;8.50;94.98
44872;BME280;30602;51.060;17.226;2024-02-26T09:06:57;100450.03;;;8.63;94.62
44872;BME280;30602;51.060;17.226;2024-02-26T09:11:17;100450.55;;;8.71;93.22
44872;BME280;30602;51.060;17.226;2024-02-26T09:15:05;100447.37;;;8.82;92.83
44872;BME280;30602;51.060;17.226;2024-02-26T09:18:35;100445.29;;;8.99;92.31
44872;BME280;30602;51.060;17.226;2024-02-26T09:22:15;100443.33;;;9.07;91.09
44872;BME280;30602;51.060;17.226;2024-02-26T09:25:44;100436.43;;;9.21;91.12
44872;BME280;30602;51.060;17.226;2024-02-26T09:29:10;100436.30;;;9.30;90.88
44872;BME280;30602;51.060;17.226;2024-02-26T09:32:39;100439.49;;;9.48;90.58
44872;BME280;30602;51.060;17.226;2024-02-26T09:36:02;100439.73;;;9.56;89.82
44872;BME280;30602;51.060;17.226;2024-02-26T09:39:34;100439.59;;;9.64;89.06
44872;BME280;30602;51.060;17.226;2024-02-26T09:43:35;100434.29;;;9.67;87.54
44872;BME280;30602;51.060;17.226;2024-02-26T09:47:11;100436.40;;;9.86;87.27
44872;BME280;30602;51.060;17.226;2024-02-26T09:50:44;100435.02;;;9.92;86.72
44872;BME280;30602;51.060;17.226;2024-02-26T09:54:13;100437.13;;;9.98;85.79
44872;BME280;30602;51.060;17.226;2024-02-26T09:57:51;100438.83;;;10.00;85.60
44872;BME280;30602;51.060;17.226;2024-02-26T10:01:18;100438.30;;;10.05;84.60
44872;BME280;30602;51.060;17.226;2024-02-26T10:04:42;100434.13;;;10.15;84.68
44872;BME280;30602;51.060;17.226;2024-02-26T10:08:43;100434.22;;;10.25;83.43
44872;BME280;30602;51.060;17.226;2024-02-26T10:12:10;100436.06;;;10.31;83.08
44872;BME280;30602;51.060;17.226;2024-02-26T10:15:36;100437.23;;;10.39;84.15
44872;BME280;30602;51.060;17.226;2024-02-26T10:18:58;100440.45;;;10.47;83.32
44872;BME280;30602;51.060;17.226;2024-02-26T10:22:31;100442.33;;;10.54;83.17
44872;BME280;30602;51.060;17.226;2024-02-26T10:26:13;100451.27;;;10.52;81.77
44872;BME280;30602;51.060;17.226;2024-02-26T10:29:36;100449.91;;;10.47;81.88
44872;BME280;30602;51.060;17.226;2024-02-26T10:33:07;100446.91;;;10.53;81.67
44872;BME280;30602;51.060;17.226;2024-02-26T10:36:35;100444.17;;;10.48;81.09
44872;BME280;30602;51.060;17.226;2024-02-26T10:39:59;100448.01;;;10.52;81.52
44872;BME280;30602;51.060;17.226;2024-02-26T10:43:22;100451.77;;;10.57;82.13
44872;BME280;30602;51.060;17.226;2024-02-26T10:46:47;100446.30;;;10.56;81.23
44872;BME280;30602;51.060;17.226;2024-02-26T10:50:26;100441.32;;;10.67;81.81
44872;BME280;30602;51.060;17.226;2024-02-26T10:54:00;100441.41;;;10.86;80.43
44872;BME280;30602;51.060;17.226;2024-02-26T10:57:24;100434.66;;;11.02;80.69
44872;BME280;30602;51.060;17.226;2024-02-26T11:00:57;100429.63;;;11.04;80.70
44872;BME280;30602;51.060;17.226;2024-02-26T11:04:24;100425.52;;;11.03;79.96
44872;BME280;30602;51.060;17.226;2024-02-26T11:07:50;100418.61;;;11.09;79.30
44872;BME280;30602;51.060;17.226;2024-02-26T11:11:19;100410.05;;;11.16;79.26
44872;BME280;30602;51.060;17.226;2024-02-26T11:14:50;100406.70;;;11.34;79.84
44872;BME280;30602;51.060;17.226;2024-02-26T11:18:19;100401.15;;;11.31;77.98
44872;BME280;30602;51.060;17.226;2024-02-26T11:21:50;100404.48;;;11.33;78.43
44872;BME280;30602;51.060;17.226;2024-02-26T11:25:17;100401.56;;;11.44;78.78
44872;BME280;30602;51.060;17.226;2024-02-26T11:28:40;100404.49;;;11.40;78.20
44872;BME280;30602;51.060;17.226;2024-02-26T11:32:07;100398.93;;;11.41;77.75
44872;BME280;30602;51.060;17.226;2024-02-26T11:35:47;100399.55;;;11.33;77.37
44872;BME280;30602;51.060;17.226;2024-02-26T11:39:12;100391.45;;;11.39;76.58
44872;BME280;30602;51.060;17.226;2024-02-26T11:42:46;100391.59;;;11.41;76.05
44872;BME280;30602;51.060;17.226;2024-02-26T11:49:58;100387.41;;;11.49;75.79
44872;BME280;30602;51.060;17.226;2024-02-26T11:53:29;100384.13;;;11.65;74.70
44872;BME280;30602;51.060;17.226;2024-02-26T11:56:53;100382.39;;;11.73;74.51
44872;BME280;30602;51.060;17.226;2024-02-26T12:00:21;100383.00;;;11.84;74.70
44872;BME280;30602;51.060;17.226;2024-02-26T12:03:47;100382.44;;;11.81;73.10
44872;BME280;30602;51.060;17.226;2024-02-26T12:07:31;100385.82;;;11.85;74.60
44872;BME280;30602;51.060;17.226;2024-02-26T12:11:02;100384.50;;;11.94;73.51
44872;BME280;30602;51.060;17.226;2024-02-26T12:14:27;100385.25;;;12.17;73.52
44872;BME280;30602;51.060;17.226;2024-02-26T12:17:53;100384.07;;;12.11;71.44
44872;BME280;30602;51.060;17.226;2024-02-26T12:21:18;100381.34;;;12.03;73.14
44872;BME280;30602;51.060;17.226;2024-02-26T12:24:44;100369.90;;;12.07;73.82
44872;BME280;30602;51.060;17.226;2024-02-26T12:28:10;100383.00;;;12.17;71.98
44872;BME280;30602;51.060;17.226;2024-02-26T12:31:46;100381.93;;;12.23;74.15
44872;BME280;30602;51.060;17.226;2024-02-26T12:35:12;100380.02;;;12.31;74.19
44872;BME280;30602;51.060;17.226;2024-02-26T12:38:33;100381.24;;;12.35;73.07
44872;BME280;30602;51.060;17.226;2024-02-26T12:42:02;100382.12;;;12.25;71.42
44872;BME280;30602;51.060;17.226;2024-02-26T12:45:26;100389.80;;;12.24;72.51
44872;BME280;30602;51.060;17.226;2024-02-26T12:48:50;100383.82;;;12.37;72.01
44872;BME280;30602;51.060;17.226;2024-02-26T12:52:17;100382.23;;;12.28;71.24
44872;BME280;30602;51.060;17.226;2024-02-26T12:55:42;100379.12;;;12.30;73.31
44872;BME280;30602;51.060;17.226;2024-02-26T12:59:08;100378.77;;;12.29;71.64
44872;BME280;30602;51.060;17.226;2024-02-26T13:02:34;100386.16;;;12.25;71.67
44872;BME280;30602;51.060;17.226;2024-02-26T13:05:58;100383.74;;;12.27;71.12
44872;BME280;30602;51.060;17.226;2024-02-26T13:09:23;100385.30;;;12.29;71.13
44872;BME280;30602;51.060;17.226;2024-02-26T13:12:49;100385.68;;;12.37;71.22
44872;BME280;30602;51.060;17.226;2024-02-26T13:16:15;100389.75;;;12.45;71.81
44872;BME280;30602;51.060;17.226;2024-02-26T13:20:13;100391.58;;;12.61;71.77
44872;BME280;30602;51.060;17.226;2024-02-26T13:23:45;100384.91;;;12.65;70.98
44872;BME280;30602;51.060;17.226;2024-02-26T13:27:12;100389.49;;;12.66;70.50
44872;BME280;30602;51.060;17.226;2024-02-26T13:30:50;100384.55;;;12.65;70.64
44872;BME280;30602;51.060;17.226;2024-02-26T13:34:47;100376.52;;;12.62;71.12
44872;BME280;30602;51.060;17.226;2024-02-26T13:38:11;100386.49;;;12.67;70.36
44872;BME280;30602;51.060;17.226;2024-02-26T13:41:45;100385.79;;;12.66;70.30
44872;BME280;30602;51.060;17.226;2024-02-26T13:45:08;100385.83;;;12.66;69.94
44872;BME280;30602;51.060;17.226;2024-02-26T13:48:33;100391.54;;;12.66;70.08
44872;BME280;30602;51.060;17.226;2024-02-26T13:51:56;100390.00;;;12.61;70.00
44872;BME280;30602;51.060;17.226;2024-02-26T13:55:20;100390.68;;;12.58;70.65
44872;BME280;30602;51.060;17.226;2024-02-26T13:58:47;100390.56;;;12.56;70.05
44872;BME280;30602;51.060;17.226;2024-02-26T14:02:12;100390.82;;;12.58;69.49
44872;BME280;30602;51.060;17.226;2024-02-26T14:05:38;100392.60;;;12.63;70.74
44872;BME280;30602;51.060;17.226;2024-02-26T14:09:03;100392.74;;;12.53;70.54
44872;BME280;30602;51.060;17.226;2024-02-26T14:12:28;100386.43;;;12.41;70.57
44872;BME280;30602;51.060;17.226;2024-02-26T14:15:52;100389.23;;;12.42;71.65
44872;BME280;30602;51.060;17.226;2024-02-26T14:19:14;100386.72;;;12.35;72.01
44872;BME280;30602;51.060;17.226;2024-02-26T14:22:35;100381.25;;;12.30;71.04
44872;BME280;30602;51.060;17.226;2024-02-26T14:26:01;100385.04;;;12.32;72.15
44872;BME280;30602;51.060;17.226;2024-02-26T14:29:27;100390.57;;;12.28;72.41
44872;BME280;30602;51.060;17.226;2024-02-26T14:32:52;100395.20;;;12.25;71.89
44872;BME280;30602;51.060;17.226;2024-02-26T14:36:16;100389.10;;;12.32;73.06
44872;BME280;30602;51.060;17.226;2024-02-26T14:39:35;100393.32;;;12.37;72.64
44872;BME280;30602;51.060;17.226;2024-02-26T14:43:13;100395.14;;;12.34;72.69
44872;BME280;30602;51.060;17.226;2024-02-26T14:46:38;100391.77;;;12.30;74.40
44872;BME280;30602;51.060;17.226;2024-02-26T14:50:06;100391.70;;;12.13;74.33
44872;BME280;30602;51.060;17.226;2024-02-26T14:53:29;100392.79;;;12.07;75.00
44872;BME280;30602;51.060;17.226;2024-02-26T14:56:52;100394.33;;;11.99;74.88
44872;BME280;30602;51.060;17.226;2024-02-26T15:00:21;100390.10;;;12.00;76.14
44872;BME280;30602;51.060;17.226;2024-02-26T15:03:54;100389.86;;;11.98;76.60
44872;BME280;30602;51.060;17.226;2024-02-26T15:07:21;100392.36;;;12.00;77.87
44872;BME280;30602;51.060;17.226;2024-02-26T15:10:46;100394.02;;;11.95;78.16
44872;BME280;30602;51.060;17.226;2024-02-26T15:14:16;100395.46;;;11.98;78.72
44872;BME280;30602;51.060;17.226;2024-02-26T15:17:40;100395.85;;;12.00;77.09
44872;BME280;30602;51.060;17.226;2024-02-26T15:21:05;100395.12;;;12.04;76.62
44872;BME280;30602;51.060;17.226;2024-02-26T15:24:27;100401.05;;;11.97;75.67
44872;BME280;30602;51.060;17.226;2024-02-26T15:27:51;100404.04;;;11.92;75.31
44872;BME280;30602;51.060;17.226;2024-02-26T15:31:20;100407.02;;;11.94;74.99
44872;BME280;30602;51.060;17.226;2024-02-26T15:34:41;100411.95;;;11.94;74.97
44872;BME280;30602;51.060;17.226;2024-02-26T15:38:10;100409.62;;;11.89;75.13
44872;BME280;30602;51.060;17.226;2024-02-26T15:41:36;100419.16;;;11.86;75.00
44872;BME280;30602;51.060;17.226;2024-02-26T15:45:08;100418.39;;;11.86;75.63
44872;BME280;30602;51.060;17.226;2024-02-26T15:48:33;100422.12;;;11.78;75.84
44872;BME280;30602;51.060;17.226;2024-02-26T15:52:00;100430.17;;;11.70;76.67
44872;BME280;30602;51.060;17.226;2024-02-26T15:55:24;100431.88;;;11.64;77.24
44872;BME280;30602;51.060;17.226;2024-02-26T15:58:48;100434.90;;;11.78;77.60
44872;BME280;30602;51.060;17.226;2024-02-26T16:02:16;100433.68;;;11.79;76.94
44872;BME280;30602;51.060;17.226;2024-02-26T16:05:44;100434.52;;;11.77;76.86
44872;BME280;30602;51.060;17.226;2024-02-26T16:09:20;100435.66;;;11.66;77.57
44872;BME280;30602;51.060;17.226;2024-02-26T16:12:59;100438.65;;;11.50;78.51
44872;BME280;30602;51.060;17.226;2024-02-26T16:16:29;100442.03;;;11.44;79.24
44872;BME280;30602;51.060;17.226;2024-02-26T16:19:57;100453.68;;;11.34;79.71
44872;BME280;30602;51.060;17.226;2024-02-26T16:23:22;100455.82;;;11.21;81.53
44872;BME280;30602;51.060;17.226;2024-02-26T16:26:47;100460.16;;;11.05;82.92
44872;BME280;30602;51.060;17.226;2024-02-26T16:30:10;100464.30;;;10.92;84.06
44872;BME280;30602;51.060;17.226;2024-02-26T16:33:31;100464.13;;;10.78;85.49
44872;BME280;30602;51.060;17.226;2024-02-26T16:36:52;100464.39;;;10.74;85.57
44872;BME280;30602;51.060;17.226;2024-02-26T16:40:17;100471.94;;;10.81;85.92
44872;BME280;30602;51.060;17.226;2024-02-26T16:43:39;100474.11;;;10.71;86.58
44872;BME280;30602;51.060;17.226;2024-02-26T16:47:05;100478.70;;;10.56;87.34
44872;BME280;30602;51.060;17.226;2024-02-26T16:50:30;100481.11;;;10.42;88.37
44872;BME280;30602;51.060;17.226;2024-02-26T16:53:55;100477.73;;;10.30;89.14
44872;BME280;30602;51.060;17.226;2024-02-26T16:57:20;100486.15;;;10.20;90.11
44872;BME280;30602;51.060;17.226;2024-02-26T17:00:45;100493.61;;;10.09;90.82
44872;BME280;30602;51.060;17.226;2024-02-26T17:04:10;100501.75;;;9.97;91.68
44872;BME280;30602;51.060;17.226;2024-02-26T17:07:35;100506.11;;;9.89;92.14
44872;BME280;30602;51.060;17.226;2024-02-26T17:11:01;100510.19;;;9.80;92.36
44872;BME280;30602;51.060;17.226;2024-02-26T17:14:29;100512.38;;;9.74;92.54
44872;BME280;30602;51.060;17.226;2024-02-26T17:17:51;100516.52;;;9.87;92.65
44872;BME280;30602;51.060;17.226;2024-02-26T17:21:16;100517.04;;;9.99;92.14
44872;BME280;30602;51.060;17.226;2024-02-26T17:24:41;100521.64;;;9.98;91.46
44872;BME280;30602;51.060;17.226;2024-02-26T17:28:09;100532.44;;;9.79;91.89
44872;BME280;30602;51.060;17.226;2024-02-26T17:31:34;100538.10;;;9.63;92.91
44872;BME280;30602;51.060;17.226;2024-02-26T17:35:13;100524.08;;;9.41;93.46
44872;BME280;30602;51.060;17.226;2024-02-26T17:38:42;100548.08;;;9.48;94.17
44872;BME280;30602;51.060;17.226;2024-02-26T17:42:06;100548.53;;;9.36;94.47
44872;BME280;30602;51.060;17.226;2024-02-26T17:45:31;100545.97;;;9.23;95.01
44872;BME280;30602;51.060;17.226;2024-02-26T17:48:56;100545.11;;;9.13;95.15
44872;BME280;30602;51.060;17.226;2024-02-26T17:52:23;100551.88;;;9.16;94.78
44872;BME280;30602;51.060;17.226;2024-02-26T17:55:49;100552.13;;;9.17;94.19
44872;BME280;30602;51.060;17.226;2024-02-26T17:59:34;100553.02;;;9.27;94.17
44872;BME280;30602;51.060;17.226;2024-02-26T18:03:02;100556.80;;;9.45;93.12
44872;BME280;30602;51.060;17.226;2024-02-26T18:06:34;100549.32;;;9.40;92.40
44872;BME280;30602;51.060;17.226;2024-02-26T18:10:06;100568.09;;;9.45;92.44
44872;BME280;30602;51.060;17.226;2024-02-26T18:13:33;100574.10;;;9.37;92.97